sensor_id;sensor_type;location;lat;lon;timestamp;P1;durP1;ratioP1;P2;durP2;ratioP2
72427;SDS011;60419;48.880;18.036;2023-03-19T00:02:12;14.98;;;7.60;;
72427;SDS011;60419;48.880;18.036;2023-03-19T00:04:57;10.90;;;6.03;;
72427;SDS011;60419;48.880;18.036;2023-03-19T00:07:43;13.30;;;6.80;;
72427;SDS011;60419;48.880;18.036;2023-03-19T00:10:28;10.68;;;6.68;;
72427;SDS011;60419;48.880;18.036;2023-03-19T00:13:14;10.93;;;6.10;;
72427;SDS011;60419;48.880;18.036;2023-03-19T00:16:00;10.38;;;6.15;;
72427;SDS011;60419;48.880;18.036;2023-03-19T00:18:45;12.73;;;6.50;;
72427;SDS011;60419;48.880;18.036;2023-03-19T00:21:30;10.35;;;5.43;;
72427;SDS011;60419;48.880;18.036;2023-03-19T00:24:16;9.60;;;5.43;;
72427;SDS011;60419;48.880;18.036;2023-03-19T00:27:01;9.93;;;5.90;;
72427;SDS011;60419;48.880;18.036;2023-03-19T00:29:47;9.82;;;5.32;;
72427;SDS011;60419;48.880;18.036;2023-03-19T00:32:33;8.95;;;5.30;;
72427;SDS011;60419;48.880;18.036;2023-03-19T00:35:19;10.70;;;5.05;;
72427;SDS011;60419;48.880;18.036;2023-03-19T00:38:04;8.70;;;5.22;;
72427;SDS011;60419;48.880;18.036;2023-03-19T00:40:50;9.27;;;5.50;;
72427;SDS011;60419;48.880;18.036;2023-03-19T00:43:35;11.10;;;5.75;;
72427;SDS011;60419;48.880;18.036;2023-03-19T00:46:21;10.65;;;5.35;;
72427;SDS011;60419;48.880;18.036;2023-03-19T00:49:07;9.27;;;5.07;;
72427;SDS011;60419;48.880;18.036;2023-03-19T00:51:52;9.68;;;5.60;;
72427;SDS011;60419;48.880;18.036;2023-03-19T00:54:38;8.80;;;5.07;;
72427;SDS011;60419;48.880;18.036;2023-03-19T00:57:23;8.27;;;5.00;;
72427;SDS011;60419;48.880;18.036;2023-03-19T01:00:10;8.70;;;5.28;;
72427;SDS011;60419;48.880;18.036;2023-03-19T01:02:56;10.70;;;5.85;;
72427;SDS011;60419;48.880;18.036;2023-03-19T01:05:41;8.70;;;4.95;;
72427;SDS011;60419;48.880;18.036;2023-03-19T01:08:26;9.43;;;5.47;;
72427;SDS011;60419;48.880;18.036;2023-03-19T01:11:12;9.55;;;5.32;;
72427;SDS011;60419;48.880;18.036;2023-03-19T01:13:59;8.45;;;5.45;;
72427;SDS011;60419;48.880;18.036;2023-03-19T01:16:44;8.43;;;5.13;;
72427;SDS011;60419;48.880;18.036;2023-03-19T01:19:29;8.15;;;5.18;;
72427;SDS011;60419;48.880;18.036;2023-03-19T01:22:15;8.32;;;5.15;;
72427;SDS011;60419;48.880;18.036;2023-03-19T01:25:02;8.68;;;5.30;;
72427;SDS011;60419;48.880;18.036;2023-03-19T01:27:47;8.68;;;5.55;;
72427;SDS011;60419;48.880;18.036;2023-03-19T01:30:35;8.20;;;5.35;;
72427;SDS011;60419;48.880;18.036;2023-03-19T01:33:20;8.32;;;4.80;;
72427;SDS011;60419;48.880;18.036;2023-03-19T01:36:05;8.35;;;5.25;;
72427;SDS011;60419;48.880;18.036;2023-03-19T01:38:52;9.98;;;5.70;;
72427;SDS011;60419;48.880;18.036;2023-03-19T01:41:38;9.43;;;4.72;;
72427;SDS011;60419;48.880;18.036;2023-03-19T01:44:24;8.10;;;5.03;;
72427;SDS011;60419;48.880;18.036;2023-03-19T01:47:15;8.45;;;5.15;;
72427;SDS011;60419;48.880;18.036;2023-03-19T01:50:03;8.60;;;4.93;;
72427;SDS011;60419;48.880;18.036;2023-03-19T01:52:49;11.95;;;4.97;;
72427;SDS011;60419;48.880;18.036;2023-03-19T01:55:34;9.52;;;5.20;;
72427;SDS011;60419;48.880;18.036;2023-03-19T01:58:19;9.45;;;6.00;;
72427;SDS011;60419;48.880;18.036;2023-03-19T02:01:05;8.07;;;4.90;;
72427;SDS011;60419;48.880;18.036;2023-03-19T02:03:51;7.28;;;5.20;;
72427;SDS011;60419;48.880;18.036;2023-03-19T02:06:37;9.85;;;5.80;;
72427;SDS011;60419;48.880;18.036;2023-03-19T02:09:25;9.98;;;5.53;;
72427;SDS011;60419;48.880;18.036;2023-03-19T02:12:12;8.23;;;5.20;;
72427;SDS011;60419;48.880;18.036;2023-03-19T02:14:57;10.63;;;5.75;;
72427;SDS011;60419;48.880;18.036;2023-03-19T02:17:43;8.85;;;5.25;;
72427;SDS011;60419;48.880;18.036;2023-03-19T02:20:30;8.23;;;5.20;;
72427;SDS011;60419;48.880;18.036;2023-03-19T02:23:39;11.63;;;5.65;;
72427;SDS011;60419;48.880;18.036;2023-03-19T02:26:38;8.15;;;4.95;;
72427;SDS011;60419;48.880;18.036;2023-03-19T02:29:25;7.60;;;5.00;;
72427;SDS011;60419;48.880;18.036;2023-03-19T02:32:10;8.70;;;5.20;;
72427;SDS011;60419;48.880;18.036;2023-03-19T02:34:56;9.07;;;5.20;;
72427;SDS011;60419;48.880;18.036;2023-03-19T02:37:42;8.93;;;5.45;;
72427;SDS011;60419;48.880;18.036;2023-03-19T02:40:28;8.88;;;5.15;;
72427;SDS011;60419;48.880;18.036;2023-03-19T02:43:15;10.38;;;5.53;;
72427;SDS011;60419;48.880;18.036;2023-03-19T02:46:01;8.52;;;5.35;;
72427;SDS011;60419;48.880;18.036;2023-03-19T02:48:48;7.22;;;4.85;;
72427;SDS011;60419;48.880;18.036;2023-03-19T02:51:33;8.80;;;5.18;;
72427;SDS011;60419;48.880;18.036;2023-03-19T02:54:19;8.95;;;5.32;;
72427;SDS011;60419;48.880;18.036;2023-03-19T02:57:04;11.88;;;5.93;;
72427;SDS011;60419;48.880;18.036;2023-03-19T02:59:49;8.60;;;5.32;;
72427;SDS011;60419;48.880;18.036;2023-03-19T03:02:35;9.10;;;5.60;;
72427;SDS011;60419;48.880;18.036;2023-03-19T03:05:20;8.98;;;5.45;;
72427;SDS011;60419;48.880;18.036;2023-03-19T03:08:06;10.65;;;6.25;;
72427;SDS011;60419;48.880;18.036;2023-03-19T03:10:51;11.10;;;5.38;;
72427;SDS011;60419;48.880;18.036;2023-03-19T03:13:36;8.60;;;5.68;;
72427;SDS011;60419;48.880;18.036;2023-03-19T03:16:22;8.30;;;5.32;;
72427;SDS011;60419;48.880;18.036;2023-03-19T03:19:07;9.32;;;5.75;;
72427;SDS011;60419;48.880;18.036;2023-03-19T03:21:52;9.70;;;5.40;;
72427;SDS011;60419;48.880;18.036;2023-03-19T03:24:38;9.05;;;4.78;;
72427;SDS011;60419;48.880;18.036;2023-03-19T03:27:23;9.55;;;5.35;;
72427;SDS011;60419;48.880;18.036;2023-03-19T03:30:09;9.48;;;5.50;;
72427;SDS011;60419;48.880;18.036;2023-03-19T03:32:55;10.60;;;5.53;;
72427;SDS011;60419;48.880;18.036;2023-03-19T03:35:40;9.60;;;4.90;;
72427;SDS011;60419;48.880;18.036;2023-03-19T03:38:26;8.93;;;5.32;;
72427;SDS011;60419;48.880;18.036;2023-03-19T03:41:11;8.68;;;5.32;;
72427;SDS011;60419;48.880;18.036;2023-03-19T03:43:56;8.70;;;5.32;;
72427;SDS011;60419;48.880;18.036;2023-03-19T03:46:42;7.88;;;4.65;;
72427;SDS011;60419;48.880;18.036;2023-03-19T03:49:27;7.10;;;5.05;;
72427;SDS011;60419;48.880;18.036;2023-03-19T03:52:13;8.05;;;4.78;;
72427;SDS011;60419;48.880;18.036;2023-03-19T03:54:58;7.68;;;5.00;;
72427;SDS011;60419;48.880;18.036;2023-03-19T03:57:44;8.73;;;5.43;;
72427;SDS011;60419;48.880;18.036;2023-03-19T04:00:30;8.10;;;5.20;;
72427;SDS011;60419;48.880;18.036;2023-03-19T04:03:15;10.38;;;5.47;;
72427;SDS011;60419;48.880;18.036;2023-03-19T04:06:01;8.65;;;5.30;;
72427;SDS011;60419;48.880;18.036;2023-03-19T04:08:46;8.63;;;5.35;;
72427;SDS011;60419;48.880;18.036;2023-03-19T04:11:31;8.65;;;5.30;;
72427;SDS011;60419;48.880;18.036;2023-03-19T04:14:19;8.48;;;5.30;;
72427;SDS011;60419;48.880;18.036;2023-03-19T04:17:04;9.40;;;5.07;;
72427;SDS011;60419;48.880;18.036;2023-03-19T04:19:50;8.02;;;5.43;;
72427;SDS011;60419;48.880;18.036;2023-03-19T04:22:35;8.23;;;4.82;;
72427;SDS011;60419;48.880;18.036;2023-03-19T04:25:21;7.38;;;4.40;;
72427;SDS011;60419;48.880;18.036;2023-03-19T04:28:07;8.43;;;5.13;;
72427;SDS011;60419;48.880;18.036;2023-03-19T04:30:57;8.13;;;4.78;;
72427;SDS011;60419;48.880;18.036;2023-03-19T04:33:47;9.93;;;5.75;;
72427;SDS011;60419;48.880;18.036;2023-03-19T04:36:32;8.57;;;5.28;;
72427;SDS011;60419;48.880;18.036;2023-03-19T04:39:17;8.75;;;5.45;;
72427;SDS011;60419;48.880;18.036;2023-03-19T04:42:03;9.20;;;5.72;;
72427;SDS011;60419;48.880;18.036;2023-03-19T04:44:50;10.15;;;6.05;;
72427;SDS011;60419;48.880;18.036;2023-03-19T04:47:35;10.45;;;6.25;;
72427;SDS011;60419;48.880;18.036;2023-03-19T04:50:21;11.15;;;6.43;;
72427;SDS011;60419;48.880;18.036;2023-03-19T04:53:06;11.43;;;6.45;;
72427;SDS011;60419;48.880;18.036;2023-03-19T04:55:52;11.40;;;7.28;;
72427;SDS011;60419;48.880;18.036;2023-03-19T04:58:37;11.82;;;7.28;;
72427;SDS011;60419;48.880;18.036;2023-03-19T05:01:22;13.45;;;7.65;;
72427;SDS011;60419;48.880;18.036;2023-03-19T05:04:08;13.20;;;7.80;;
72427;SDS011;60419;48.880;18.036;2023-03-19T05:06:53;12.68;;;7.80;;
72427;SDS011;60419;48.880;18.036;2023-03-19T05:09:39;12.40;;;8.02;;
72427;SDS011;60419;48.880;18.036;2023-03-19T05:12:24;13.70;;;7.85;;
72427;SDS011;60419;48.880;18.036;2023-03-19T05:15:10;10.73;;;7.38;;
72427;SDS011;60419;48.880;18.036;2023-03-19T05:17:56;13.65;;;8.35;;
72427;SDS011;60419;48.880;18.036;2023-03-19T05:20:41;13.57;;;7.97;;
72427;SDS011;60419;48.880;18.036;2023-03-19T05:23:27;14.10;;;7.82;;
72427;SDS011;60419;48.880;18.036;2023-03-19T05:26:12;14.38;;;8.77;;
72427;SDS011;60419;48.880;18.036;2023-03-19T05:28:57;15.10;;;8.20;;
72427;SDS011;60419;48.880;18.036;2023-03-19T05:31:43;12.38;;;7.10;;
72427;SDS011;60419;48.880;18.036;2023-03-19T05:34:28;11.27;;;7.05;;
72427;SDS011;60419;48.880;18.036;2023-03-19T05:37:14;12.02;;;7.65;;
72427;SDS011;60419;48.880;18.036;2023-03-19T05:39:59;23.52;;;18.20;;
72427;SDS011;60419;48.880;18.036;2023-03-19T05:42:44;11.95;;;6.72;;
72427;SDS011;60419;48.880;18.036;2023-03-19T05:45:30;15.50;;;8.70;;
72427;SDS011;60419;48.880;18.036;2023-03-19T05:48:15;10.18;;;6.10;;
72427;SDS011;60419;48.880;18.036;2023-03-19T05:51:01;9.77;;;6.18;;
72427;SDS011;60419;48.880;18.036;2023-03-19T05:53:46;10.45;;;6.57;;
72427;SDS011;60419;48.880;18.036;2023-03-19T05:56:31;11.57;;;5.60;;
72427;SDS011;60419;48.880;18.036;2023-03-19T05:59:17;8.57;;;5.43;;
72427;SDS011;60419;48.880;18.036;2023-03-19T06:02:02;9.77;;;6.55;;
72427;SDS011;60419;48.880;18.036;2023-03-19T06:04:47;10.93;;;6.22;;
72427;SDS011;60419;48.880;18.036;2023-03-19T06:07:33;11.65;;;6.60;;
72427;SDS011;60419;48.880;18.036;2023-03-19T06:10:18;10.57;;;6.20;;
72427;SDS011;60419;48.880;18.036;2023-03-19T06:13:03;10.57;;;6.35;;
72427;SDS011;60419;48.880;18.036;2023-03-19T06:15:49;11.90;;;7.05;;
72427;SDS011;60419;48.880;18.036;2023-03-19T06:18:35;15.80;;;8.75;;
72427;SDS011;60419;48.880;18.036;2023-03-19T06:21:21;14.13;;;8.90;;
72427;SDS011;60419;48.880;18.036;2023-03-19T06:24:06;15.88;;;8.40;;
72427;SDS011;60419;48.880;18.036;2023-03-19T06:26:52;13.88;;;8.35;;
72427;SDS011;60419;48.880;18.036;2023-03-19T06:29:37;16.52;;;8.77;;
72427;SDS011;60419;48.880;18.036;2023-03-19T06:32:22;14.05;;;8.40;;
72427;SDS011;60419;48.880;18.036;2023-03-19T06:35:08;13.50;;;8.00;;
72427;SDS011;60419;48.880;18.036;2023-03-19T06:37:54;13.18;;;8.15;;
72427;SDS011;60419;48.880;18.036;2023-03-19T06:40:39;14.63;;;8.48;;
72427;SDS011;60419;48.880;18.036;2023-03-19T06:43:25;15.60;;;9.43;;
72427;SDS011;60419;48.880;18.036;2023-03-19T06:46:10;16.63;;;9.48;;
72427;SDS011;60419;48.880;18.036;2023-03-19T06:48:56;12.57;;;6.60;;
72427;SDS011;60419;48.880;18.036;2023-03-19T06:51:41;15.00;;;8.40;;
72427;SDS011;60419;48.880;18.036;2023-03-19T06:54:26;11.90;;;6.90;;
72427;SDS011;60419;48.880;18.036;2023-03-19T06:57:12;14.02;;;6.47;;
72427;SDS011;60419;48.880;18.036;2023-03-19T06:59:57;10.00;;;6.00;;
72427;SDS011;60419;48.880;18.036;2023-03-19T07:02:43;9.55;;;5.55;;
72427;SDS011;60419;48.880;18.036;2023-03-19T07:05:28;10.30;;;6.43;;
72427;SDS011;60419;48.880;18.036;2023-03-19T07:08:14;11.55;;;7.22;;
72427;SDS011;60419;48.880;18.036;2023-03-19T07:11:03;10.02;;;6.00;;
72427;SDS011;60419;48.880;18.036;2023-03-19T07:13:50;7.18;;;4.40;;
72427;SDS011;60419;48.880;18.036;2023-03-19T07:16:35;7.93;;;4.35;;
72427;SDS011;60419;48.880;18.036;2023-03-19T07:19:21;6.90;;;4.50;;
72427;SDS011;60419;48.880;18.036;2023-03-19T07:22:07;6.63;;;4.32;;
72427;SDS011;60419;48.880;18.036;2023-03-19T07:24:52;6.35;;;3.92;;
72427;SDS011;60419;48.880;18.036;2023-03-19T07:27:37;6.95;;;4.47;;
72427;SDS011;60419;48.880;18.036;2023-03-19T07:30:23;8.00;;;4.13;;
72427;SDS011;60419;48.880;18.036;2023-03-19T07:33:08;7.65;;;4.45;;
72427;SDS011;60419;48.880;18.036;2023-03-19T07:35:53;7.90;;;4.35;;
72427;SDS011;60419;48.880;18.036;2023-03-19T07:38:38;6.72;;;4.05;;
72427;SDS011;60419;48.880;18.036;2023-03-19T07:41:24;6.25;;;3.95;;
72427;SDS011;60419;48.880;18.036;2023-03-19T07:44:09;6.45;;;4.20;;
72427;SDS011;60419;48.880;18.036;2023-03-19T07:46:55;10.85;;;4.53;;
72427;SDS011;60419;48.880;18.036;2023-03-19T07:49:40;5.65;;;4.03;;
72427;SDS011;60419;48.880;18.036;2023-03-19T07:52:26;6.28;;;4.45;;
72427;SDS011;60419;48.880;18.036;2023-03-19T07:55:11;7.20;;;4.45;;
72427;SDS011;60419;48.880;18.036;2023-03-19T07:57:56;6.28;;;4.00;;
72427;SDS011;60419;48.880;18.036;2023-03-19T08:00:42;6.60;;;4.07;;
72427;SDS011;60419;48.880;18.036;2023-03-19T08:03:29;6.35;;;4.20;;
72427;SDS011;60419;48.880;18.036;2023-03-19T08:06:14;8.18;;;4.45;;
72427;SDS011;60419;48.880;18.036;2023-03-19T08:08:59;6.20;;;3.80;;
72427;SDS011;60419;48.880;18.036;2023-03-19T08:11:45;7.05;;;4.53;;
72427;SDS011;60419;48.880;18.036;2023-03-19T08:14:30;7.43;;;4.03;;
72427;SDS011;60419;48.880;18.036;2023-03-19T08:17:16;6.82;;;4.20;;
72427;SDS011;60419;48.880;18.036;2023-03-19T08:20:01;6.28;;;3.85;;
72427;SDS011;60419;48.880;18.036;2023-03-19T08:22:48;6.47;;;3.90;;
72427;SDS011;60419;48.880;18.036;2023-03-19T08:25:34;6.53;;;3.90;;
72427;SDS011;60419;48.880;18.036;2023-03-19T08:28:20;8.25;;;4.22;;
72427;SDS011;60419;48.880;18.036;2023-03-19T08:31:09;7.55;;;3.60;;
72427;SDS011;60419;48.880;18.036;2023-03-19T08:33:55;6.05;;;3.80;;
72427;SDS011;60419;48.880;18.036;2023-03-19T08:36:44;7.13;;;3.50;;
72427;SDS011;60419;48.880;18.036;2023-03-19T08:39:29;6.38;;;3.80;;
72427;SDS011;60419;48.880;18.036;2023-03-19T08:42:14;6.30;;;3.80;;
72427;SDS011;60419;48.880;18.036;2023-03-19T08:44:59;5.93;;;3.50;;
72427;SDS011;60419;48.880;18.036;2023-03-19T08:47:45;5.75;;;3.65;;
72427;SDS011;60419;48.880;18.036;2023-03-19T08:50:32;5.88;;;3.70;;
72427;SDS011;60419;48.880;18.036;2023-03-19T08:53:17;5.85;;;3.22;;
72427;SDS011;60419;48.880;18.036;2023-03-19T08:56:03;5.22;;;3.65;;
72427;SDS011;60419;48.880;18.036;2023-03-19T08:58:50;5.25;;;3.35;;
72427;SDS011;60419;48.880;18.036;2023-03-19T09:01:35;6.65;;;3.55;;
72427;SDS011;60419;48.880;18.036;2023-03-19T09:04:21;6.97;;;3.70;;
72427;SDS011;60419;48.880;18.036;2023-03-19T09:07:06;5.03;;;3.38;;
72427;SDS011;60419;48.880;18.036;2023-03-19T09:09:52;6.30;;;3.90;;
72427;SDS011;60419;48.880;18.036;2023-03-19T09:12:37;6.82;;;3.75;;
72427;SDS011;60419;48.880;18.036;2023-03-19T09:15:23;7.88;;;3.80;;
72427;SDS011;60419;48.880;18.036;2023-03-19T09:18:08;7.40;;;3.78;;
72427;SDS011;60419;48.880;18.036;2023-03-19T09:20:53;7.03;;;4.45;;
72427;SDS011;60419;48.880;18.036;2023-03-19T09:23:39;8.98;;;4.68;;
72427;SDS011;60419;48.880;18.036;2023-03-19T09:26:24;7.40;;;3.92;;
72427;SDS011;60419;48.880;18.036;2023-03-19T09:29:10;6.78;;;4.00;;
72427;SDS011;60419;48.880;18.036;2023-03-19T09:31:55;6.25;;;3.95;;
72427;SDS011;60419;48.880;18.036;2023-03-19T09:34:41;6.80;;;3.75;;
72427;SDS011;60419;48.880;18.036;2023-03-19T09:37:26;6.00;;;3.80;;
72427;SDS011;60419;48.880;18.036;2023-03-19T09:40:21;6.35;;;3.70;;
72427;SDS011;60419;48.880;18.036;2023-03-19T09:46:11;5.68;;;3.30;;
72427;SDS011;60419;48.880;18.036;2023-03-19T09:49:05;6.60;;;3.60;;
72427;SDS011;60419;48.880;18.036;2023-03-19T09:54:54;6.70;;;3.72;;
72427;SDS011;60419;48.880;18.036;2023-03-19T09:57:42;8.75;;;3.72;;
72427;SDS011;60419;48.880;18.036;2023-03-19T10:00:29;6.55;;;3.38;;
72427;SDS011;60419;48.880;18.036;2023-03-19T10:06:29;6.15;;;3.85;;
72427;SDS011;60419;48.880;18.036;2023-03-19T10:12:25;6.35;;;3.75;;
72427;SDS011;60419;48.880;18.036;2023-03-19T10:15:26;7.60;;;3.67;;
72427;SDS011;60419;48.880;18.036;2023-03-19T10:18:17;7.03;;;3.83;;
72427;SDS011;60419;48.880;18.036;2023-03-19T10:21:12;6.82;;;3.80;;
72427;SDS011;60419;48.880;18.036;2023-03-19T10:26:54;7.15;;;3.67;;
72427;SDS011;60419;48.880;18.036;2023-03-19T10:29:56;6.20;;;3.30;;
72427;SDS011;60419;48.880;18.036;2023-03-19T10:32:43;6.13;;;3.30;;
72427;SDS011;60419;48.880;18.036;2023-03-19T10:35:40;5.10;;;3.10;;
72427;SDS011;60419;48.880;18.036;2023-03-19T10:38:28;5.18;;;3.38;;
72427;SDS011;60419;48.880;18.036;2023-03-19T10:44:20;6.88;;;3.35;;
72427;SDS011;60419;48.880;18.036;2023-03-19T10:47:13;6.18;;;3.10;;
72427;SDS011;60419;48.880;18.036;2023-03-19T10:50:00;6.10;;;3.00;;
72427;SDS011;60419;48.880;18.036;2023-03-19T10:52:51;5.60;;;3.00;;
72427;SDS011;60419;48.880;18.036;2023-03-19T10:55:54;6.70;;;3.65;;
72427;SDS011;60419;48.880;18.036;2023-03-19T10:58:54;5.68;;;3.42;;
72427;SDS011;60419;48.880;18.036;2023-03-19T11:01:48;6.43;;;3.30;;
72427;SDS011;60419;48.880;18.036;2023-03-19T11:04:34;5.13;;;3.13;;
72427;SDS011;60419;48.880;18.036;2023-03-19T11:07:19;4.90;;;3.05;;
72427;SDS011;60419;48.880;18.036;2023-03-19T11:10:12;5.63;;;3.47;;
72427;SDS011;60419;48.880;18.036;2023-03-19T11:13:14;4.97;;;3.03;;
72427;SDS011;60419;48.880;18.036;2023-03-19T11:16:07;5.18;;;3.35;;
72427;SDS011;60419;48.880;18.036;2023-03-19T11:18:52;4.97;;;3.30;;
72427;SDS011;60419;48.880;18.036;2023-03-19T11:21:38;5.15;;;3.10;;
72427;SDS011;60419;48.880;18.036;2023-03-19T11:24:23;5.28;;;3.10;;
72427;SDS011;60419;48.880;18.036;2023-03-19T11:27:10;5.38;;;3.28;;
72427;SDS011;60419;48.880;18.036;2023-03-19T11:29:56;5.30;;;3.10;;
72427;SDS011;60419;48.880;18.036;2023-03-19T11:35:53;6.43;;;3.22;;
72427;SDS011;60419;48.880;18.036;2023-03-19T11:39:02;5.80;;;2.95;;
72427;SDS011;60419;48.880;18.036;2023-03-19T11:51:29;7.90;;;3.58;;
72427;SDS011;60419;48.880;18.036;2023-03-19T12:09:33;6.70;;;3.38;;
72427;SDS011;60419;48.880;18.036;2023-03-19T12:12:24;5.93;;;3.45;;
72427;SDS011;60419;48.880;18.036;2023-03-19T12:15:19;5.88;;;3.33;;
72427;SDS011;60419;48.880;18.036;2023-03-19T12:21:53;5.20;;;3.00;;
72427;SDS011;60419;48.880;18.036;2023-03-19T12:27:53;5.05;;;3.20;;
72427;SDS011;60419;48.880;18.036;2023-03-19T12:30:43;6.25;;;3.33;;
72427;SDS011;60419;48.880;18.036;2023-03-19T12:36:22;4.47;;;2.67;;
72427;SDS011;60419;48.880;18.036;2023-03-19T12:39:14;4.97;;;3.10;;
72427;SDS011;60419;48.880;18.036;2023-03-19T12:42:05;5.60;;;3.08;;
72427;SDS011;60419;48.880;18.036;2023-03-19T12:44:57;5.38;;;3.05;;
72427;SDS011;60419;48.880;18.036;2023-03-19T12:47:45;5.22;;;3.10;;
72427;SDS011;60419;48.880;18.036;2023-03-19T12:50:31;6.18;;;2.92;;
72427;SDS011;60419;48.880;18.036;2023-03-19T12:53:25;5.93;;;3.10;;
72427;SDS011;60419;48.880;18.036;2023-03-19T12:56:35;5.35;;;2.97;;
72427;SDS011;60419;48.880;18.036;2023-03-19T12:59:36;6.80;;;3.67;;
72427;SDS011;60419;48.880;18.036;2023-03-19T13:02:29;6.78;;;3.38;;
72427;SDS011;60419;48.880;18.036;2023-03-19T13:05:34;6.53;;;3.30;;
72427;SDS011;60419;48.880;18.036;2023-03-19T13:08:31;7.35;;;3.30;;
72427;SDS011;60419;48.880;18.036;2023-03-19T13:11:31;6.10;;;3.22;;
72427;SDS011;60419;48.880;18.036;2023-03-19T13:14:23;4.63;;;2.72;;
72427;SDS011;60419;48.880;18.036;2023-03-19T13:23:28;6.25;;;3.53;;
72427;SDS011;60419;48.880;18.036;2023-03-19T13:26:16;5.97;;;3.50;;
72427;SDS011;60419;48.880;18.036;2023-03-19T13:31:50;7.47;;;4.05;;
72427;SDS011;60419;48.880;18.036;2023-03-19T13:34:36;5.78;;;3.20;;
72427;SDS011;60419;48.880;18.036;2023-03-19T13:37:22;5.00;;;3.30;;
72427;SDS011;60419;48.880;18.036;2023-03-19T13:43:39;7.75;;;3.58;;
72427;SDS011;60419;48.880;18.036;2023-03-19T13:46:44;6.18;;;3.50;;
72427;SDS011;60419;48.880;18.036;2023-03-19T13:49:30;6.47;;;3.30;;
72427;SDS011;60419;48.880;18.036;2023-03-19T14:00:57;5.50;;;3.55;;
72427;SDS011;60419;48.880;18.036;2023-03-19T14:06:52;6.72;;;3.80;;
72427;SDS011;60419;48.880;18.036;2023-03-19T14:09:41;6.53;;;3.88;;
72427;SDS011;60419;48.880;18.036;2023-03-19T14:15:20;5.65;;;3.35;;
72427;SDS011;60419;48.880;18.036;2023-03-19T14:18:09;6.53;;;3.70;;
72427;SDS011;60419;48.880;18.036;2023-03-19T14:21:00;5.32;;;3.38;;
72427;SDS011;60419;48.880;18.036;2023-03-19T14:23:51;6.80;;;3.47;;
72427;SDS011;60419;48.880;18.036;2023-03-19T14:26:40;5.85;;;3.53;;
72427;SDS011;60419;48.880;18.036;2023-03-19T14:29:28;6.90;;;3.83;;
72427;SDS011;60419;48.880;18.036;2023-03-19T14:32:18;6.15;;;3.70;;
72427;SDS011;60419;48.880;18.036;2023-03-19T14:35:11;6.05;;;3.53;;
72427;SDS011;60419;48.880;18.036;2023-03-19T14:38:01;5.72;;;3.53;;
72427;SDS011;60419;48.880;18.036;2023-03-19T14:40:55;8.18;;;3.90;;
72427;SDS011;60419;48.880;18.036;2023-03-19T14:53:23;6.63;;;3.20;;
72427;SDS011;60419;48.880;18.036;2023-03-19T14:56:13;9.48;;;3.45;;
72427;SDS011;60419;48.880;18.036;2023-03-19T14:59:10;5.88;;;3.00;;
72427;SDS011;60419;48.880;18.036;2023-03-19T15:01:59;6.82;;;3.63;;
72427;SDS011;60419;48.880;18.036;2023-03-19T15:04:44;7.85;;;4.03;;
72427;SDS011;60419;48.880;18.036;2023-03-19T15:07:32;9.73;;;3.60;;
72427;SDS011;60419;48.880;18.036;2023-03-19T15:10:26;7.72;;;3.90;;
72427;SDS011;60419;48.880;18.036;2023-03-19T15:16:14;6.18;;;3.70;;
72427;SDS011;60419;48.880;18.036;2023-03-19T15:19:02;7.85;;;3.78;;
72427;SDS011;60419;48.880;18.036;2023-03-19T15:21:47;7.57;;;3.55;;
72427;SDS011;60419;48.880;18.036;2023-03-19T15:24:34;6.28;;;3.80;;
72427;SDS011;60419;48.880;18.036;2023-03-19T15:30:23;7.95;;;3.97;;
72427;SDS011;60419;48.880;18.036;2023-03-19T15:33:19;9.40;;;3.67;;
72427;SDS011;60419;48.880;18.036;2023-03-19T15:36:18;7.22;;;4.10;;
72427;SDS011;60419;48.880;18.036;2023-03-19T15:39:11;9.60;;;4.15;;
72427;SDS011;60419;48.880;18.036;2023-03-19T15:42:01;6.05;;;4.13;;
72427;SDS011;60419;48.880;18.036;2023-03-19T15:47:36;8.27;;;4.38;;
72427;SDS011;60419;48.880;18.036;2023-03-19T15:50:27;16.05;;;6.93;;
72427;SDS011;60419;48.880;18.036;2023-03-19T15:53:19;6.80;;;4.22;;
72427;SDS011;60419;48.880;18.036;2023-03-19T15:56:07;7.97;;;4.22;;
72427;SDS011;60419;48.880;18.036;2023-03-19T15:58:54;6.38;;;3.90;;
72427;SDS011;60419;48.880;18.036;2023-03-19T16:01:41;7.93;;;4.28;;
72427;SDS011;60419;48.880;18.036;2023-03-19T16:04:26;6.97;;;4.30;;
72427;SDS011;60419;48.880;18.036;2023-03-19T16:07:21;8.25;;;4.15;;
72427;SDS011;60419;48.880;18.036;2023-03-19T16:10:30;6.65;;;4.05;;
72427;SDS011;60419;48.880;18.036;2023-03-19T16:19:03;6.53;;;3.67;;
72427;SDS011;60419;48.880;18.036;2023-03-19T16:21:48;8.32;;;4.53;;
72427;SDS011;60419;48.880;18.036;2023-03-19T16:24:35;8.45;;;4.50;;
72427;SDS011;60419;48.880;18.036;2023-03-19T16:27:34;8.23;;;4.10;;
72427;SDS011;60419;48.880;18.036;2023-03-19T16:30:23;7.05;;;4.18;;
72427;SDS011;60419;48.880;18.036;2023-03-19T16:33:10;9.20;;;3.97;;
72427;SDS011;60419;48.880;18.036;2023-03-19T16:35:56;6.30;;;4.03;;
72427;SDS011;60419;48.880;18.036;2023-03-19T16:38:43;6.97;;;3.75;;
72427;SDS011;60419;48.880;18.036;2023-03-19T16:41:37;8.07;;;4.40;;
72427;SDS011;60419;48.880;18.036;2023-03-19T16:44:22;7.22;;;4.20;;
72427;SDS011;60419;48.880;18.036;2023-03-19T16:47:13;7.35;;;4.45;;
72427;SDS011;60419;48.880;18.036;2023-03-19T16:49:59;8.20;;;4.45;;
72427;SDS011;60419;48.880;18.036;2023-03-19T16:52:45;8.23;;;4.13;;
72427;SDS011;60419;48.880;18.036;2023-03-19T16:55:32;8.23;;;4.72;;
72427;SDS011;60419;48.880;18.036;2023-03-19T16:58:30;8.68;;;4.53;;
72427;SDS011;60419;48.880;18.036;2023-03-19T17:01:20;6.55;;;4.10;;
72427;SDS011;60419;48.880;18.036;2023-03-19T17:04:10;8.50;;;4.72;;
72427;SDS011;60419;48.880;18.036;2023-03-19T17:07:01;8.07;;;4.32;;
72427;SDS011;60419;48.880;18.036;2023-03-19T17:09:46;7.70;;;4.65;;
72427;SDS011;60419;48.880;18.036;2023-03-19T17:12:31;8.90;;;4.80;;
72427;SDS011;60419;48.880;18.036;2023-03-19T17:15:25;9.82;;;5.00;;
72427;SDS011;60419;48.880;18.036;2023-03-19T17:18:24;13.93;;;7.95;;
72427;SDS011;60419;48.880;18.036;2023-03-19T17:24:16;19.88;;;10.25;;
72427;SDS011;60419;48.880;18.036;2023-03-19T17:27:06;28.77;;;18.38;;
72427;SDS011;60419;48.880;18.036;2023-03-19T17:29:53;64.15;;;38.13;;
72427;SDS011;60419;48.880;18.036;2023-03-19T17:32:39;47.53;;;28.88;;
72427;SDS011;60419;48.880;18.036;2023-03-19T17:35:27;22.42;;;12.05;;
72427;SDS011;60419;48.880;18.036;2023-03-19T17:38:12;16.88;;;9.65;;
72427;SDS011;60419;48.880;18.036;2023-03-19T17:41:01;14.55;;;9.18;;
72427;SDS011;60419;48.880;18.036;2023-03-19T17:43:53;15.32;;;8.50;;
72427;SDS011;60419;48.880;18.036;2023-03-19T17:46:42;34.67;;;18.92;;
72427;SDS011;60419;48.880;18.036;2023-03-19T17:49:29;29.88;;;19.73;;
72427;SDS011;60419;48.880;18.036;2023-03-19T17:52:17;23.33;;;16.77;;
72427;SDS011;60419;48.880;18.036;2023-03-19T17:55:13;22.45;;;15.95;;
72427;SDS011;60419;48.880;18.036;2023-03-19T17:58:00;41.50;;;22.85;;
72427;SDS011;60419;48.880;18.036;2023-03-19T18:00:46;32.10;;;19.23;;
72427;SDS011;60419;48.880;18.036;2023-03-19T18:03:32;75.80;;;50.15;;
72427;SDS011;60419;48.880;18.036;2023-03-19T18:06:21;33.17;;;21.50;;
72427;SDS011;60419;48.880;18.036;2023-03-19T18:09:20;21.27;;;13.05;;
72427;SDS011;60419;48.880;18.036;2023-03-19T18:12:07;24.85;;;13.77;;
72427;SDS011;60419;48.880;18.036;2023-03-19T18:14:52;26.27;;;14.48;;
72427;SDS011;60419;48.880;18.036;2023-03-19T18:17:41;25.02;;;15.18;;
72427;SDS011;60419;48.880;18.036;2023-03-19T18:20:35;16.15;;;10.75;;
72427;SDS011;60419;48.880;18.036;2023-03-19T18:23:22;11.88;;;7.53;;